sensor_id;sensor_type;location;lat;lon;timestamp;P1;durP1;ratioP1;P2;durP2;ratioP2
37237;SDS011;23129;49.662;8.448;2023-12-20T00:01:31;1.85;;;1.10;;
37237;SDS011;23129;49.662;8.448;2023-12-20T00:04:01;1.88;;;1.35;;
37237;SDS011;23129;49.662;8.448;2023-12-20T00:06:31;1.75;;;1.35;;
37237;SDS011;23129;49.662;8.448;2023-12-20T00:08:59;1.55;;;1.25;;
37237;SDS011;23129;49.662;8.448;2023-12-20T00:11:28;1.30;;;1.20;;
37237;SDS011;23129;49.662;8.448;2023-12-20T00:13:57;1.58;;;1.48;;
37237;SDS011;23129;49.662;8.448;2023-12-20T00:16:26;1.33;;;1.17;;
37237;SDS011;23129;49.662;8.448;2023-12-20T00:18:54;1.10;;;1.00;;
37237;SDS011;23129;49.662;8.448;2023-12-20T00:21:25;1.48;;;1.15;;
37237;SDS011;23129;49.662;8.448;2023-12-20T00:23:53;1.80;;;1.48;;
37237;SDS011;23129;49.662;8.448;2023-12-20T00:26:22;3.88;;;1.13;;
37237;SDS011;23129;49.662;8.448;2023-12-20T00:28:51;1.42;;;1.35;;
37237;SDS011;23129;49.662;8.448;2023-12-20T00:31:25;1.08;;;1.08;;
37237;SDS011;23129;49.662;8.448;2023-12-20T00:33:54;1.75;;;1.65;;
37237;SDS011;23129;49.662;8.448;2023-12-20T00:36:24;1.58;;;1.48;;
37237;SDS011;23129;49.662;8.448;2023-12-20T00:38:53;1.63;;;1.52;;
37237;SDS011;23129;49.662;8.448;2023-12-20T00:41:21;1.63;;;1.52;;
37237;SDS011;23129;49.662;8.448;2023-12-20T00:43:50;1.77;;;1.67;;
37237;SDS011;23129;49.662;8.448;2023-12-20T00:46:49;2.40;;;1.65;;
37237;SDS011;23129;49.662;8.448;2023-12-20T00:50:06;1.30;;;1.20;;
37237;SDS011;23129;49.662;8.448;2023-12-20T00:52:37;2.30;;;1.42;;
37237;SDS011;23129;49.662;8.448;2023-12-20T00:55:06;2.35;;;1.30;;
37237;SDS011;23129;49.662;8.448;2023-12-20T00:57:35;1.95;;;1.55;;
37237;SDS011;23129;49.662;8.448;2023-12-20T01:00:04;1.50;;;1.35;;
37237;SDS011;23129;49.662;8.448;2023-12-20T01:02:36;1.67;;;1.40;;
37237;SDS011;23129;49.662;8.448;2023-12-20T01:05:05;4.55;;;1.52;;
37237;SDS011;23129;49.662;8.448;2023-12-20T01:07:37;1.48;;;1.27;;
37237;SDS011;23129;49.662;8.448;2023-12-20T01:10:06;1.77;;;1.67;;
37237;SDS011;23129;49.662;8.448;2023-12-20T01:15:04;2.58;;;1.58;;
37237;SDS011;23129;49.662;8.448;2023-12-20T01:17:33;1.75;;;1.50;;
37237;SDS011;23129;49.662;8.448;2023-12-20T01:20:03;1.42;;;1.25;;
37237;SDS011;23129;49.662;8.448;2023-12-20T01:22:32;2.13;;;1.50;;
37237;SDS011;23129;49.662;8.448;2023-12-20T01:25:03;2.15;;;1.20;;
37237;SDS011;23129;49.662;8.448;2023-12-20T01:27:33;4.57;;;1.75;;
37237;SDS011;23129;49.662;8.448;2023-12-20T01:30:02;1.85;;;1.00;;
37237;SDS011;23129;49.662;8.448;2023-12-20T01:32:31;2.78;;;1.50;;
37237;SDS011;23129;49.662;8.448;2023-12-20T01:35:00;1.50;;;0.65;;
37237;SDS011;23129;49.662;8.448;2023-12-20T01:37:29;0.93;;;0.93;;
37237;SDS011;23129;49.662;8.448;2023-12-20T01:39:58;0.70;;;0.70;;
37237;SDS011;23129;49.662;8.448;2023-12-20T01:42:28;1.27;;;0.85;;
37237;SDS011;23129;49.662;8.448;2023-12-20T01:44:57;1.40;;;1.23;;
37237;SDS011;23129;49.662;8.448;2023-12-20T01:47:26;1.08;;;0.85;;
37237;SDS011;23129;49.662;8.448;2023-12-20T01:49:55;3.08;;;1.00;;
37237;SDS011;23129;49.662;8.448;2023-12-20T01:52:24;1.60;;;0.70;;
37237;SDS011;23129;49.662;8.448;2023-12-20T01:54:54;2.97;;;1.10;;
37237;SDS011;23129;49.662;8.448;2023-12-20T01:57:30;2.90;;;0.77;;
37237;SDS011;23129;49.662;8.448;2023-12-20T02:00:00;1.38;;;0.90;;
37237;SDS011;23129;49.662;8.448;2023-12-20T02:02:30;0.75;;;0.55;;
37237;SDS011;23129;49.662;8.448;2023-12-20T02:04:59;0.65;;;0.65;;
37237;SDS011;23129;49.662;8.448;2023-12-20T02:07:29;0.77;;;0.77;;
37237;SDS011;23129;49.662;8.448;2023-12-20T02:09:58;1.70;;;0.80;;
37237;SDS011;23129;49.662;8.448;2023-12-20T02:12:27;1.30;;;0.57;;
37237;SDS011;23129;49.662;8.448;2023-12-20T02:14:57;0.77;;;0.70;;
37237;SDS011;23129;49.662;8.448;2023-12-20T02:17:26;3.72;;;0.80;;
37237;SDS011;23129;49.662;8.448;2023-12-20T02:19:57;0.95;;;0.80;;
37237;SDS011;23129;49.662;8.448;2023-12-20T02:22:27;2.17;;;1.00;;
37237;SDS011;23129;49.662;8.448;2023-12-20T02:24:56;0.50;;;0.50;;
37237;SDS011;23129;49.662;8.448;2023-12-20T02:27:25;0.77;;;0.77;;
37237;SDS011;23129;49.662;8.448;2023-12-20T02:29:55;1.15;;;0.73;;
37237;SDS011;23129;49.662;8.448;2023-12-20T02:32:23;3.00;;;1.20;;
37237;SDS011;23129;49.662;8.448;2023-12-20T02:34:54;1.15;;;1.02;;
37237;SDS011;23129;49.662;8.448;2023-12-20T02:37:23;1.05;;;1.05;;
37237;SDS011;23129;49.662;8.448;2023-12-20T02:39:53;1.90;;;0.77;;
37237;SDS011;23129;49.662;8.448;2023-12-20T02:42:22;1.20;;;1.10;;
37237;SDS011;23129;49.662;8.448;2023-12-20T02:44:51;0.98;;;0.90;;
37237;SDS011;23129;49.662;8.448;2023-12-20T02:47:20;1.05;;;0.88;;
37237;SDS011;23129;49.662;8.448;2023-12-20T02:49:49;1.55;;;1.00;;
37237;SDS011;23129;49.662;8.448;2023-12-20T02:52:19;1.33;;;1.02;;
37237;SDS011;23129;49.662;8.448;2023-12-20T02:54:48;0.60;;;0.60;;
37237;SDS011;23129;49.662;8.448;2023-12-20T02:57:18;3.97;;;1.15;;
37237;SDS011;23129;49.662;8.448;2023-12-20T02:59:47;1.02;;;1.00;;
37237;SDS011;23129;49.662;8.448;2023-12-20T03:02:16;0.80;;;0.80;;
37237;SDS011;23129;49.662;8.448;2023-12-20T03:04:45;2.45;;;1.08;;
37237;SDS011;23129;49.662;8.448;2023-12-20T03:07:14;1.45;;;1.30;;
37237;SDS011;23129;49.662;8.448;2023-12-20T03:09:43;1.23;;;1.13;;
37237;SDS011;23129;49.662;8.448;2023-12-20T03:12:33;1.20;;;1.10;;
37237;SDS011;23129;49.662;8.448;2023-12-20T03:15:04;1.50;;;0.95;;
37237;SDS011;23129;49.662;8.448;2023-12-20T03:17:33;2.78;;;1.30;;
37237;SDS011;23129;49.662;8.448;2023-12-20T03:20:01;1.05;;;1.00;;
37237;SDS011;23129;49.662;8.448;2023-12-20T03:22:31;1.80;;;1.42;;
37237;SDS011;23129;49.662;8.448;2023-12-20T03:24:59;0.93;;;0.80;;
37237;SDS011;23129;49.662;8.448;2023-12-20T03:27:28;1.60;;;1.48;;
37237;SDS011;23129;49.662;8.448;2023-12-20T03:29:59;1.08;;;1.00;;
37237;SDS011;23129;49.662;8.448;2023-12-20T03:32:28;1.35;;;1.25;;
37237;SDS011;23129;49.662;8.448;2023-12-20T03:34:57;1.10;;;1.00;;
37237;SDS011;23129;49.662;8.448;2023-12-20T03:37:26;1.63;;;1.52;;
37237;SDS011;23129;49.662;8.448;2023-12-20T03:39:54;3.60;;;1.17;;
37237;SDS011;23129;49.662;8.448;2023-12-20T03:42:23;2.05;;;1.10;;
37237;SDS011;23129;49.662;8.448;2023-12-20T03:44:52;1.40;;;1.30;;
37237;SDS011;23129;49.662;8.448;2023-12-20T03:47:22;2.63;;;1.42;;
37237;SDS011;23129;49.662;8.448;2023-12-20T03:49:52;1.30;;;1.20;;
37237;SDS011;23129;49.662;8.448;2023-12-20T03:52:22;1.73;;;1.60;;
37237;SDS011;23129;49.662;8.448;2023-12-20T03:54:51;1.40;;;1.30;;
37237;SDS011;23129;49.662;8.448;2023-12-20T03:57:20;1.92;;;1.33;;
37237;SDS011;23129;49.662;8.448;2023-12-20T03:59:48;1.52;;;1.35;;
37237;SDS011;23129;49.662;8.448;2023-12-20T04:02:17;1.52;;;1.33;;
37237;SDS011;23129;49.662;8.448;2023-12-20T04:04:48;1.90;;;1.67;;
37237;SDS011;23129;49.662;8.448;2023-12-20T04:07:16;1.33;;;1.10;;
37237;SDS011;23129;49.662;8.448;2023-12-20T04:09:45;3.17;;;1.95;;
37237;SDS011;23129;49.662;8.448;2023-12-20T04:12:14;2.05;;;1.92;;
37237;SDS011;23129;49.662;8.448;2023-12-20T04:14:43;2.03;;;1.75;;
37237;SDS011;23129;49.662;8.448;2023-12-20T04:17:12;1.95;;;1.77;;
37237;SDS011;23129;49.662;8.448;2023-12-20T04:19:42;1.88;;;1.75;;
37237;SDS011;23129;49.662;8.448;2023-12-20T04:22:12;2.72;;;2.05;;
37237;SDS011;23129;49.662;8.448;2023-12-20T04:24:41;2.17;;;1.92;;
37237;SDS011;23129;49.662;8.448;2023-12-20T04:27:10;3.47;;;2.10;;
37237;SDS011;23129;49.662;8.448;2023-12-20T04:29:38;2.17;;;1.95;;
37237;SDS011;23129;49.662;8.448;2023-12-20T04:32:07;1.80;;;1.70;;
37237;SDS011;23129;49.662;8.448;2023-12-20T04:34:36;2.28;;;2.08;;
37237;SDS011;23129;49.662;8.448;2023-12-20T04:37:05;2.30;;;1.90;;
37237;SDS011;23129;49.662;8.448;2023-12-20T04:39:35;2.97;;;2.33;;
37237;SDS011;23129;49.662;8.448;2023-12-20T04:42:04;3.50;;;1.95;;
37237;SDS011;23129;49.662;8.448;2023-12-20T04:44:32;2.50;;;2.08;;
37237;SDS011;23129;49.662;8.448;2023-12-20T04:47:01;3.20;;;2.33;;
37237;SDS011;23129;49.662;8.448;2023-12-20T04:49:30;2.85;;;2.08;;
37237;SDS011;23129;49.662;8.448;2023-12-20T04:52:00;3.55;;;2.97;;
37237;SDS011;23129;49.662;8.448;2023-12-20T04:54:29;3.13;;;2.83;;
37237;SDS011;23129;49.662;8.448;2023-12-20T04:56:59;4.95;;;3.70;;
37237;SDS011;23129;49.662;8.448;2023-12-20T04:59:28;4.93;;;3.63;;
37237;SDS011;23129;49.662;8.448;2023-12-20T05:01:57;3.75;;;3.40;;
37237;SDS011;23129;49.662;8.448;2023-12-20T05:04:26;3.72;;;3.25;;
37237;SDS011;23129;49.662;8.448;2023-12-20T05:06:55;3.25;;;2.95;;
37237;SDS011;23129;49.662;8.448;2023-12-20T05:09:23;4.88;;;3.90;;
37237;SDS011;23129;49.662;8.448;2023-12-20T05:11:52;3.25;;;2.95;;
37237;SDS011;23129;49.662;8.448;2023-12-20T05:14:23;3.53;;;3.22;;
37237;SDS011;23129;49.662;8.448;2023-12-20T05:16:52;3.72;;;3.40;;
37237;SDS011;23129;49.662;8.448;2023-12-20T05:19:21;6.05;;;3.72;;
37237;SDS011;23129;49.662;8.448;2023-12-20T05:21:50;5.45;;;3.85;;
37237;SDS011;23129;49.662;8.448;2023-12-20T05:24:19;4.13;;;3.58;;
37237;SDS011;23129;49.662;8.448;2023-12-20T05:26:48;4.03;;;3.22;;
37237;SDS011;23129;49.662;8.448;2023-12-20T05:29:19;8.05;;;3.75;;
37237;SDS011;23129;49.662;8.448;2023-12-20T05:31:49;5.07;;;4.00;;
37237;SDS011;23129;49.662;8.448;2023-12-20T05:34:18;4.40;;;3.92;;
37237;SDS011;23129;49.662;8.448;2023-12-20T05:36:47;4.63;;;3.55;;
37237;SDS011;23129;49.662;8.448;2023-12-20T05:39:16;4.50;;;3.22;;
37237;SDS011;23129;49.662;8.448;2023-12-20T05:41:45;3.55;;;3.25;;
37237;SDS011;23129;49.662;8.448;2023-12-20T05:44:14;5.97;;;3.45;;
37237;SDS011;23129;49.662;8.448;2023-12-20T05:46:42;5.03;;;3.53;;
37237;SDS011;23129;49.662;8.448;2023-12-20T05:49:13;5.88;;;3.92;;
37237;SDS011;23129;49.662;8.448;2023-12-20T05:51:42;4.60;;;3.50;;
37237;SDS011;23129;49.662;8.448;2023-12-20T05:54:11;5.72;;;3.55;;
37237;SDS011;23129;49.662;8.448;2023-12-20T05:56:39;4.05;;;3.25;;
37237;SDS011;23129;49.662;8.448;2023-12-20T05:59:08;4.05;;;3.35;;
37237;SDS011;23129;49.662;8.448;2023-12-20T06:01:37;3.30;;;2.72;;
37237;SDS011;23129;49.662;8.448;2023-12-20T06:04:07;4.07;;;3.17;;
37237;SDS011;23129;49.662;8.448;2023-12-20T06:06:41;3.15;;;2.85;;
37237;SDS011;23129;49.662;8.448;2023-12-20T06:09:10;3.80;;;2.85;;
37237;SDS011;23129;49.662;8.448;2023-12-20T06:11:40;2.38;;;2.05;;
37237;SDS011;23129;49.662;8.448;2023-12-20T06:14:08;4.82;;;2.72;;
37237;SDS011;23129;49.662;8.448;2023-12-20T06:16:37;4.30;;;3.15;;
37237;SDS011;23129;49.662;8.448;2023-12-20T06:19:06;7.18;;;3.22;;
37237;SDS011;23129;49.662;8.448;2023-12-20T06:21:35;4.43;;;3.35;;
37237;SDS011;23129;49.662;8.448;2023-12-20T06:24:08;3.83;;;2.50;;
37237;SDS011;23129;49.662;8.448;2023-12-20T06:26:37;4.90;;;3.00;;
37237;SDS011;23129;49.662;8.448;2023-12-20T06:29:05;3.53;;;3.03;;
37237;SDS011;23129;49.662;8.448;2023-12-20T06:31:34;1.85;;;1.73;;
37237;SDS011;23129;49.662;8.448;2023-12-20T06:34:03;2.90;;;2.58;;
37237;SDS011;23129;49.662;8.448;2023-12-20T06:36:32;3.05;;;2.30;;
37237;SDS011;23129;49.662;8.448;2023-12-20T06:39:01;4.57;;;3.53;;
37237;SDS011;23129;49.662;8.448;2023-12-20T06:41:32;12.20;;;4.63;;
37237;SDS011;23129;49.662;8.448;2023-12-20T06:44:01;6.68;;;5.22;;
37237;SDS011;23129;49.662;8.448;2023-12-20T06:46:30;8.48;;;4.25;;
37237;SDS011;23129;49.662;8.448;2023-12-20T06:48:59;3.28;;;3.05;;
37237;SDS011;23129;49.662;8.448;2023-12-20T06:51:29;3.40;;;2.85;;
37237;SDS011;23129;49.662;8.448;2023-12-20T06:53:57;7.00;;;3.00;;
37237;SDS011;23129;49.662;8.448;2023-12-20T06:56:29;6.55;;;3.20;;
37237;SDS011;23129;49.662;8.448;2023-12-20T06:58:59;4.30;;;2.60;;
37237;SDS011;23129;49.662;8.448;2023-12-20T07:01:27;3.63;;;2.22;;
37237;SDS011;23129;49.662;8.448;2023-12-20T07:03:56;7.25;;;1.88;;
37237;SDS011;23129;49.662;8.448;2023-12-20T07:06:25;4.07;;;1.92;;
37237;SDS011;23129;49.662;8.448;2023-12-20T07:08:54;2.22;;;1.77;;
37237;SDS011;23129;49.662;8.448;2023-12-20T07:11:23;5.05;;;2.45;;
37237;SDS011;23129;49.662;8.448;2023-12-20T07:13:52;3.88;;;2.10;;
37237;SDS011;23129;49.662;8.448;2023-12-20T07:16:22;5.50;;;2.80;;
37237;SDS011;23129;49.662;8.448;2023-12-20T07:18:51;3.92;;;2.42;;
37237;SDS011;23129;49.662;8.448;2023-12-20T07:21:20;3.30;;;3.00;;
37237;SDS011;23129;49.662;8.448;2023-12-20T07:23:49;8.27;;;4.00;;
37237;SDS011;23129;49.662;8.448;2023-12-20T07:26:17;7.13;;;5.60;;
37237;SDS011;23129;49.662;8.448;2023-12-20T07:28:47;11.75;;;5.95;;
37237;SDS011;23129;49.662;8.448;2023-12-20T07:31:16;7.82;;;4.45;;
37237;SDS011;23129;49.662;8.448;2023-12-20T07:33:46;4.90;;;3.42;;
37237;SDS011;23129;49.662;8.448;2023-12-20T07:36:15;3.58;;;2.97;;
37237;SDS011;23129;49.662;8.448;2023-12-20T07:38:44;4.20;;;3.10;;
37237;SDS011;23129;49.662;8.448;2023-12-20T07:41:13;3.65;;;2.97;;
37237;SDS011;23129;49.662;8.448;2023-12-20T07:43:42;3.53;;;3.22;;
37237;SDS011;23129;49.662;8.448;2023-12-20T07:46:11;13.35;;;4.32;;
37237;SDS011;23129;49.662;8.448;2023-12-20T07:48:40;5.95;;;3.97;;
37237;SDS011;23129;49.662;8.448;2023-12-20T07:51:13;5.47;;;4.20;;
37237;SDS011;23129;49.662;8.448;2023-12-20T07:53:41;18.38;;;4.45;;
37237;SDS011;23129;49.662;8.448;2023-12-20T07:56:14;7.43;;;3.75;;
37237;SDS011;23129;49.662;8.448;2023-12-20T07:58:43;3.85;;;2.55;;
37237;SDS011;23129;49.662;8.448;2023-12-20T08:01:19;4.97;;;3.00;;
37237;SDS011;23129;49.662;8.448;2023-12-20T08:03:49;3.63;;;2.28;;
37237;SDS011;23129;49.662;8.448;2023-12-20T08:06:19;3.90;;;2.33;;
37237;SDS011;23129;49.662;8.448;2023-12-20T08:08:49;2.70;;;2.50;;
37237;SDS011;23129;49.662;8.448;2023-12-20T08:11:44;5.53;;;2.92;;
37237;SDS011;23129;49.662;8.448;2023-12-20T08:14:13;2.70;;;2.20;;
37237;SDS011;23129;49.662;8.448;2023-12-20T08:16:42;2.33;;;2.10;;
37237;SDS011;23129;49.662;8.448;2023-12-20T08:19:11;7.28;;;2.35;;
37237;SDS011;23129;49.662;8.448;2023-12-20T08:21:43;2.85;;;1.80;;
37237;SDS011;23129;49.662;8.448;2023-12-20T08:24:11;3.17;;;2.08;;
37237;SDS011;23129;49.662;8.448;2023-12-20T08:26:40;3.80;;;3.20;;
37237;SDS011;23129;49.662;8.448;2023-12-20T08:29:09;1.90;;;1.80;;
37237;SDS011;23129;49.662;8.448;2023-12-20T08:31:40;3.78;;;2.55;;
37237;SDS011;23129;49.662;8.448;2023-12-20T08:34:08;5.13;;;2.38;;
37237;SDS011;23129;49.662;8.448;2023-12-20T08:36:38;3.03;;;2.10;;
37237;SDS011;23129;49.662;8.448;2023-12-20T08:39:08;2.78;;;1.75;;
37237;SDS011;23129;49.662;8.448;2023-12-20T08:41:37;3.17;;;1.95;;
37237;SDS011;23129;49.662;8.448;2023-12-20T08:44:05;2.13;;;1.45;;
37237;SDS011;23129;49.662;8.448;2023-12-20T08:46:34;3.30;;;1.92;;
37237;SDS011;23129;49.662;8.448;2023-12-20T08:49:03;5.72;;;2.03;;
37237;SDS011;23129;49.662;8.448;2023-12-20T08:51:32;5.15;;;1.42;;
37237;SDS011;23129;49.662;8.448;2023-12-20T08:54:00;5.15;;;2.05;;
37237;SDS011;23129;49.662;8.448;2023-12-20T08:56:35;2.05;;;1.50;;
37237;SDS011;23129;49.662;8.448;2023-12-20T08:59:04;2.78;;;1.50;;
37237;SDS011;23129;49.662;8.448;2023-12-20T09:01:32;1.92;;;1.50;;
37237;SDS011;23129;49.662;8.448;2023-12-20T09:04:01;2.75;;;1.65;;
37237;SDS011;23129;49.662;8.448;2023-12-20T09:06:30;3.30;;;1.27;;
37237;SDS011;23129;49.662;8.448;2023-12-20T09:08:59;4.07;;;1.30;;
37237;SDS011;23129;49.662;8.448;2023-12-20T09:11:49;1.90;;;1.42;;
37237;SDS011;23129;49.662;8.448;2023-12-20T09:14:18;3.33;;;1.73;;
37237;SDS011;23129;49.662;8.448;2023-12-20T09:16:47;4.18;;;1.60;;
37237;SDS011;23129;49.662;8.448;2023-12-20T09:19:17;7.57;;;1.65;;
37237;SDS011;23129;49.662;8.448;2023-12-20T09:21:46;6.57;;;2.17;;
37237;SDS011;23129;49.662;8.448;2023-12-20T09:24:15;4.05;;;2.50;;
37237;SDS011;23129;49.662;8.448;2023-12-20T09:26:44;2.78;;;1.45;;
37237;SDS011;23129;49.662;8.448;2023-12-20T09:29:14;3.25;;;1.40;;
37237;SDS011;23129;49.662;8.448;2023-12-20T09:31:43;4.35;;;1.70;;
37237;SDS011;23129;49.662;8.448;2023-12-20T09:34:14;5.30;;;1.95;;
37237;SDS011;23129;49.662;8.448;2023-12-20T09:36:44;4.35;;;2.30;;
37237;SDS011;23129;49.662;8.448;2023-12-20T09:39:14;4.13;;;1.48;;
37237;SDS011;23129;49.662;8.448;2023-12-20T09:41:46;3.30;;;1.70;;
37237;SDS011;23129;49.662;8.448;2023-12-20T09:44:23;2.88;;;1.77;;
37237;SDS011;23129;49.662;8.448;2023-12-20T09:46:52;6.65;;;1.92;;
37237;SDS011;23129;49.662;8.448;2023-12-20T09:49:22;4.55;;;1.73;;
37237;SDS011;23129;49.662;8.448;2023-12-20T09:51:53;9.20;;;2.55;;
37237;SDS011;23129;49.662;8.448;2023-12-20T09:54:23;2.60;;;2.13;;
37237;SDS011;23129;49.662;8.448;2023-12-20T09:56:53;7.43;;;2.15;;
37237;SDS011;23129;49.662;8.448;2023-12-20T09:59:23;3.22;;;2.22;;
37237;SDS011;23129;49.662;8.448;2023-12-20T10:01:51;9.15;;;2.08;;
37237;SDS011;23129;49.662;8.448;2023-12-20T10:04:24;9.73;;;2.47;;
37237;SDS011;23129;49.662;8.448;2023-12-20T10:06:56;17.40;;;3.72;;
37237;SDS011;23129;49.662;8.448;2023-12-20T10:09:32;8.07;;;2.53;;
37237;SDS011;23129;49.662;8.448;2023-12-20T10:12:02;4.50;;;2.15;;
37237;SDS011;23129;49.662;8.448;2023-12-20T10:14:33;8.65;;;2.63;;
37237;SDS011;23129;49.662;8.448;2023-12-20T10:17:02;6.80;;;2.53;;
37237;SDS011;23129;49.662;8.448;2023-12-20T10:19:32;4.93;;;1.95;;
37237;SDS011;23129;49.662;8.448;2023-12-20T10:22:03;6.82;;;2.58;;
37237;SDS011;23129;49.662;8.448;2023-12-20T10:24:33;6.47;;;3.08;;
37237;SDS011;23129;49.662;8.448;2023-12-20T10:27:01;3.67;;;2.03;;
37237;SDS011;23129;49.662;8.448;2023-12-20T10:29:33;4.40;;;1.75;;
37237;SDS011;23129;49.662;8.448;2023-12-20T10:32:21;5.80;;;2.25;;
37237;SDS011;23129;49.662;8.448;2023-12-20T10:34:51;10.00;;;2.95;;
37237;SDS011;23129;49.662;8.448;2023-12-20T10:37:21;3.67;;;1.73;;
37237;SDS011;23129;49.662;8.448;2023-12-20T10:39:51;15.52;;;2.65;;
37237;SDS011;23129;49.662;8.448;2023-12-20T10:42:24;13.23;;;3.33;;
37237;SDS011;23129;49.662;8.448;2023-12-20T10:44:59;6.38;;;2.28;;
37237;SDS011;23129;49.662;8.448;2023-12-20T10:47:28;13.10;;;3.05;;
37237;SDS011;23129;49.662;8.448;2023-12-20T10:49:59;21.83;;;3.22;;
37237;SDS011;23129;49.662;8.448;2023-12-20T10:52:29;16.58;;;2.78;;
37237;SDS011;23129;49.662;8.448;2023-12-20T10:55:02;10.93;;;2.58;;
37237;SDS011;23129;49.662;8.448;2023-12-20T10:57:31;12.90;;;3.63;;
37237;SDS011;23129;49.662;8.448;2023-12-20T11:00:05;9.27;;;3.13;;
37237;SDS011;23129;49.662;8.448;2023-12-20T11:02:41;16.00;;;3.53;;
37237;SDS011;23129;49.662;8.448;2023-12-20T11:05:14;7.45;;;3.17;;
37237;SDS011;23129;49.662;8.448;2023-12-20T11:07:54;11.98;;;4.18;;
37237;SDS011;23129;49.662;8.448;2023-12-20T11:10:31;12.45;;;3.40;;
37237;SDS011;23129;49.662;8.448;2023-12-20T11:13:08;16.20;;;3.33;;
37237;SDS011;23129;49.662;8.448;2023-12-20T11:15:42;10.60;;;2.80;;
37237;SDS011;23129;49.662;8.448;2023-12-20T11:18:11;15.60;;;3.63;;
37237;SDS011;23129;49.662;8.448;2023-12-20T11:20:40;16.38;;;4.13;;
37237;SDS011;23129;49.662;8.448;2023-12-20T11:23:09;9.52;;;3.42;;
37237;SDS011;23129;49.662;8.448;2023-12-20T11:25:47;10.45;;;3.95;;
37237;SDS011;23129;49.662;8.448;2023-12-20T11:28:20;11.57;;;3.13;;
37237;SDS011;23129;49.662;8.448;2023-12-20T11:30:52;9.40;;;3.15;;
37237;SDS011;23129;49.662;8.448;2023-12-20T11:33:22;12.02;;;3.45;;
37237;SDS011;23129;49.662;8.448;2023-12-20T11:35:56;11.60;;;3.90;;
37237;SDS011;23129;49.662;8.448;2023-12-20T11:38:26;12.27;;;3.95;;
37237;SDS011;23129;49.662;8.448;2023-12-20T11:40:55;14.75;;;3.63;;
37237;SDS011;23129;49.662;8.448;2023-12-20T11:43:31;7.25;;;3.22;;
37237;SDS011;23129;49.662;8.448;2023-12-20T11:46:04;6.88;;;2.63;;
37237;SDS011;23129;49.662;8.448;2023-12-20T11:48:36;6.03;;;2.67;;
37237;SDS011;23129;49.662;8.448;2023-12-20T11:51:09;4.50;;;2.80;;
37237;SDS011;23129;49.662;8.448;2023-12-20T11:53:39;12.98;;;2.53;;
37237;SDS011;23129;49.662;8.448;2023-12-20T11:56:09;4.97;;;1.98;;
37237;SDS011;23129;49.662;8.448;2023-12-20T11:58:39;9.57;;;2.40;;
37237;SDS011;23129;49.662;8.448;2023-12-20T12:01:09;8.88;;;3.00;;
37237;SDS011;23129;49.662;8.448;2023-12-20T12:03:38;10.23;;;2.17;;
37237;SDS011;23129;49.662;8.448;2023-12-20T12:06:07;13.02;;;2.95;;
37237;SDS011;23129;49.662;8.448;2023-12-20T12:08:36;14.73;;;2.70;;
37237;SDS011;23129;49.662;8.448;2023-12-20T12:11:05;6.13;;;2.60;;
37237;SDS011;23129;49.662;8.448;2023-12-20T12:13:34;7.30;;;2.58;;
37237;SDS011;23129;49.662;8.448;2023-12-20T12:16:04;4.15;;;1.80;;
37237;SDS011;23129;49.662;8.448;2023-12-20T12:18:34;5.30;;;2.10;;
37237;SDS011;23129;49.662;8.448;2023-12-20T12:21:04;10.18;;;2.80;;
37237;SDS011;23129;49.662;8.448;2023-12-20T12:23:41;4.97;;;1.98;;
37237;SDS011;23129;49.662;8.448;2023-12-20T12:26:10;8.93;;;2.67;;
37237;SDS011;23129;49.662;8.448;2023-12-20T12:28:39;6.32;;;1.77;;
37237;SDS011;23129;49.662;8.448;2023-12-20T12:31:12;4.57;;;2.33;;
37237;SDS011;23129;49.662;8.448;2023-12-20T12:33:44;9.40;;;1.90;;
37237;SDS011;23129;49.662;8.448;2023-12-20T12:36:14;7.00;;;1.48;;
37237;SDS011;23129;49.662;8.448;2023-12-20T12:38:44;5.45;;;1.92;;
37237;SDS011;23129;49.662;8.448;2023-12-20T12:41:13;3.42;;;1.52;;
37237;SDS011;23129;49.662;8.448;2023-12-20T12:43:42;5.38;;;2.15;;
37237;SDS011;23129;49.662;8.448;2023-12-20T12:46:11;3.55;;;1.85;;
37237;SDS011;23129;49.662;8.448;2023-12-20T12:48:40;8.00;;;1.98;;
37237;SDS011;23129;49.662;8.448;2023-12-20T12:51:14;7.45;;;2.15;;
37237;SDS011;23129;49.662;8.448;2023-12-20T12:53:42;6.47;;;1.90;;
37237;SDS011;23129;49.662;8.448;2023-12-20T12:56:12;11.68;;;2.70;;
37237;SDS011;23129;49.662;8.448;2023-12-20T12:58:41;4.75;;;1.73;;
37237;SDS011;23129;49.662;8.448;2023-12-20T13:01:10;8.52;;;1.80;;
37237;SDS011;23129;49.662;8.448;2023-12-20T13:03:39;2.88;;;1.52;;
37237;SDS011;23129;49.662;8.448;2023-12-20T13:06:08;20.83;;;2.28;;
37237;SDS011;23129;49.662;8.448;2023-12-20T13:08:38;7.90;;;2.28;;
37237;SDS011;23129;49.662;8.448;2023-12-20T13:11:08;10.23;;;2.20;;
37237;SDS011;23129;49.662;8.448;2023-12-20T13:13:37;7.68;;;2.22;;
37237;SDS011;23129;49.662;8.448;2023-12-20T13:16:05;7.97;;;1.83;;
37237;SDS011;23129;49.662;8.448;2023-12-20T13:18:35;4.10;;;1.75;;
37237;SDS011;23129;49.662;8.448;2023-12-20T13:21:04;9.88;;;1.60;;
37237;SDS011;23129;49.662;8.448;2023-12-20T13:23:32;4.53;;;1.63;;
37237;SDS011;23129;49.662;8.448;2023-12-20T13:26:07;10.75;;;1.77;;
37237;SDS011;23129;49.662;8.448;2023-12-20T13:28:36;5.05;;;1.75;;
37237;SDS011;23129;49.662;8.448;2023-12-20T13:31:05;6.15;;;1.40;;
37237;SDS011;23129;49.662;8.448;2023-12-20T13:33:34;7.30;;;1.30;;
37237;SDS011;23129;49.662;8.448;2023-12-20T13:36:03;4.35;;;1.20;;
37237;SDS011;23129;49.662;8.448;2023-12-20T13:38:34;3.70;;;1.30;;
37237;SDS011;23129;49.662;8.448;2023-12-20T13:41:03;11.60;;;1.35;;
37237;SDS011;23129;49.662;8.448;2023-12-20T13:43:33;4.47;;;1.20;;
37237;SDS011;23129;49.662;8.448;2023-12-20T13:46:03;4.60;;;1.23;;
37237;SDS011;23129;49.662;8.448;2023-12-20T13:48:32;9.45;;;1.42;;
37237;SDS011;23129;49.662;8.448;2023-12-20T13:51:00;10.07;;;1.50;;
37237;SDS011;23129;49.662;8.448;2023-12-20T13:53:30;6.03;;;1.35;;
37237;SDS011;23129;49.662;8.448;2023-12-20T13:55:58;5.15;;;1.42;;
37237;SDS011;23129;49.662;8.448;2023-12-20T13:58:27;10.73;;;1.23;;
37237;SDS011;23129;49.662;8.448;2023-12-20T14:00:58;5.53;;;1.15;;
37237;SDS011;23129;49.662;8.448;2023-12-20T14:03:27;4.63;;;1.20;;
37237;SDS011;23129;49.662;8.448;2023-12-20T14:05:57;10.77;;;1.50;;
37237;SDS011;23129;49.662;8.448;2023-12-20T14:08:26;6.15;;;1.55;;
37237;SDS011;23129;49.662;8.448;2023-12-20T14:10:55;9.73;;;1.48;;
37237;SDS011;23129;49.662;8.448;2023-12-20T14:13:24;6.15;;;1.38;;
37237;SDS011;23129;49.662;8.448;2023-12-20T14:15:53;3.80;;;1.35;;
37237;SDS011;23129;49.662;8.448;2023-12-20T14:18:23;12.93;;;1.25;;
37237;SDS011;23129;49.662;8.448;2023-12-20T14:20:51;1.45;;;1.00;;
37237;SDS011;23129;49.662;8.448;2023-12-20T14:23:21;9.50;;;0.90;;
37237;SDS011;23129;49.662;8.448;2023-12-20T14:25:50;6.15;;;1.15;;
37237;SDS011;23129;49.662;8.448;2023-12-20T14:28:21;5.05;;;1.45;;
37237;SDS011;23129;49.662;8.448;2023-12-20T14:30:50;6.53;;;1.10;;
37237;SDS011;23129;49.662;8.448;2023-12-20T14:33:19;7.65;;;1.52;;
37237;SDS011;23129;49.662;8.448;2023-12-20T14:35:49;5.40;;;1.38;;
37237;SDS011;23129;49.662;8.448;2023-12-20T14:38:18;6.78;;;2.17;;
37237;SDS011;23129;49.662;8.448;2023-12-20T14:40:47;2.47;;;0.85;;
37237;SDS011;23129;49.662;8.448;2023-12-20T14:43:17;6.20;;;1.50;;
37237;SDS011;23129;49.662;8.448;2023-12-20T14:45:48;10.90;;;1.17;;
37237;SDS011;23129;49.662;8.448;2023-12-20T14:48:18;7.82;;;1.80;;
37237;SDS011;23129;49.662;8.448;2023-12-20T14:50:47;1.60;;;1.33;;
37237;SDS011;23129;49.662;8.448;2023-12-20T14:53:19;7.18;;;1.25;;
37237;SDS011;23129;49.662;8.448;2023-12-20T14:55:49;4.85;;;1.85;;
37237;SDS011;23129;49.662;8.448;2023-12-20T14:58:18;1.33;;;0.85;;
37237;SDS011;23129;49.662;8.448;2023-12-20T15:00:47;9.38;;;1.40;;
37237;SDS011;23129;49.662;8.448;2023-12-20T15:03:15;3.00;;;0.70;;
37237;SDS011;23129;49.662;8.448;2023-12-20T15:05:45;7.82;;;1.13;;